sensor_id;sensor_type;location;lat;lon;timestamp;P1;durP1;ratioP1;P2;durP2;ratioP2
7263;SDS011;3673;52.480;13.348;2023-04-01T00:01:19;3.45;;;1.90;;
7263;SDS011;3673;52.480;13.348;2023-04-01T00:03:46;4.93;;;2.00;;
7263;SDS011;3673;52.480;13.348;2023-04-01T00:06:14;2.60;;;1.70;;
7263;SDS011;3673;52.480;13.348;2023-04-01T00:08:42;4.75;;;1.77;;
7263;SDS011;3673;52.480;13.348;2023-04-01T00:11:09;3.28;;;1.90;;
7263;SDS011;3673;52.480;13.348;2023-04-01T00:13:36;7.07;;;2.42;;
7263;SDS011;3673;52.480;13.348;2023-04-01T00:16:05;2.83;;;1.88;;
7263;SDS011;3673;52.480;13.348;2023-04-01T00:18:33;4.38;;;2.05;;
7263;SDS011;3673;52.480;13.348;2023-04-01T00:21:00;4.05;;;2.10;;
7263;SDS011;3673;52.480;13.348;2023-04-01T00:23:27;4.68;;;2.60;;
7263;SDS011;3673;52.480;13.348;2023-04-01T00:25:53;3.20;;;2.00;;
7263;SDS011;3673;52.480;13.348;2023-04-01T00:28:20;2.75;;;1.80;;
7263;SDS011;3673;52.480;13.348;2023-04-01T00:30:47;2.17;;;1.70;;
7263;SDS011;3673;52.480;13.348;2023-04-01T00:33:15;4.45;;;1.77;;
7263;SDS011;3673;52.480;13.348;2023-04-01T00:35:42;3.80;;;1.85;;
7263;SDS011;3673;52.480;13.348;2023-04-01T00:38:09;2.78;;;1.90;;
7263;SDS011;3673;52.480;13.348;2023-04-01T00:40:37;3.22;;;2.05;;
7263;SDS011;3673;52.480;13.348;2023-04-01T00:43:09;4.75;;;1.92;;
7263;SDS011;3673;52.480;13.348;2023-04-01T00:45:39;2.92;;;1.73;;
7263;SDS011;3673;52.480;13.348;2023-04-01T00:48:09;2.78;;;1.55;;
7263;SDS011;3673;52.480;13.348;2023-04-01T00:50:42;1.90;;;1.70;;
7263;SDS011;3673;52.480;13.348;2023-04-01T00:53:16;2.40;;;1.60;;
7263;SDS011;3673;52.480;13.348;2023-04-01T00:55:46;3.30;;;2.17;;
7263;SDS011;3673;52.480;13.348;2023-04-01T00:58:20;5.75;;;2.03;;
7263;SDS011;3673;52.480;13.348;2023-04-01T01:00:53;8.25;;;2.65;;
7263;SDS011;3673;52.480;13.348;2023-04-01T01:03:22;5.03;;;2.28;;
7263;SDS011;3673;52.480;13.348;2023-04-01T01:05:55;3.17;;;2.17;;
7263;SDS011;3673;52.480;13.348;2023-04-01T01:09:05;4.68;;;2.50;;
7263;SDS011;3673;52.480;13.348;2023-04-01T01:11:52;3.50;;;1.90;;
7263;SDS011;3673;52.480;13.348;2023-04-01T01:14:31;8.05;;;1.95;;
7263;SDS011;3673;52.480;13.348;2023-04-01T01:17:13;3.70;;;1.73;;
7263;SDS011;3673;52.480;13.348;2023-04-01T01:19:57;6.60;;;2.45;;
7263;SDS011;3673;52.480;13.348;2023-04-01T01:23:07;5.47;;;2.33;;
7263;SDS011;3673;52.480;13.348;2023-04-01T01:26:12;4.38;;;2.10;;
7263;SDS011;3673;52.480;13.348;2023-04-01T01:29:16;6.28;;;1.77;;
7263;SDS011;3673;52.480;13.348;2023-04-01T01:32:05;5.85;;;2.20;;
7263;SDS011;3673;52.480;13.348;2023-04-01T01:34:46;2.10;;;1.90;;
7263;SDS011;3673;52.480;13.348;2023-04-01T01:37:23;7.22;;;2.08;;
7263;SDS011;3673;52.480;13.348;2023-04-01T01:39:54;5.57;;;1.58;;
7263;SDS011;3673;52.480;13.348;2023-04-01T01:42:24;8.38;;;2.03;;
7263;SDS011;3673;52.480;13.348;2023-04-01T01:44:54;2.95;;;1.48;;
7263;SDS011;3673;52.480;13.348;2023-04-01T01:47:24;5.43;;;1.80;;
7263;SDS011;3673;52.480;13.348;2023-04-01T01:49:53;4.25;;;1.50;;
7263;SDS011;3673;52.480;13.348;2023-04-01T01:52:22;3.60;;;1.67;;
7263;SDS011;3673;52.480;13.348;2023-04-01T01:54:50;3.88;;;1.75;;
7263;SDS011;3673;52.480;13.348;2023-04-01T01:57:20;2.85;;;1.48;;
7263;SDS011;3673;52.480;13.348;2023-04-01T01:59:51;5.07;;;1.90;;
7263;SDS011;3673;52.480;13.348;2023-04-01T02:02:22;2.83;;;1.65;;
7263;SDS011;3673;52.480;13.348;2023-04-01T02:04:50;6.32;;;2.10;;
7263;SDS011;3673;52.480;13.348;2023-04-01T02:07:19;6.20;;;1.77;;
7263;SDS011;3673;52.480;13.348;2023-04-01T02:09:53;6.45;;;1.95;;
7263;SDS011;3673;52.480;13.348;2023-04-01T02:12:20;2.67;;;1.65;;
7263;SDS011;3673;52.480;13.348;2023-04-01T02:14:50;4.93;;;2.13;;
7263;SDS011;3673;52.480;13.348;2023-04-01T02:17:21;6.05;;;1.60;;
7263;SDS011;3673;52.480;13.348;2023-04-01T02:19:51;4.22;;;1.80;;
7263;SDS011;3673;52.480;13.348;2023-04-01T02:22:25;6.20;;;1.75;;
7263;SDS011;3673;52.480;13.348;2023-04-01T02:24:57;3.58;;;1.50;;
7263;SDS011;3673;52.480;13.348;2023-04-01T02:27:29;4.47;;;1.70;;
7263;SDS011;3673;52.480;13.348;2023-04-01T02:29:56;7.15;;;2.65;;
7263;SDS011;3673;52.480;13.348;2023-04-01T02:32:24;5.43;;;1.92;;
7263;SDS011;3673;52.480;13.348;2023-04-01T02:34:53;3.50;;;1.60;;
7263;SDS011;3673;52.480;13.348;2023-04-01T02:37:20;5.32;;;1.88;;
7263;SDS011;3673;52.480;13.348;2023-04-01T02:39:48;4.45;;;1.90;;
7263;SDS011;3673;52.480;13.348;2023-04-01T02:42:15;3.47;;;1.77;;
7263;SDS011;3673;52.480;13.348;2023-04-01T02:44:42;2.30;;;1.98;;
7263;SDS011;3673;52.480;13.348;2023-04-01T02:47:09;3.72;;;1.77;;
7263;SDS011;3673;52.480;13.348;2023-04-01T02:49:36;2.53;;;1.42;;
7263;SDS011;3673;52.480;13.348;2023-04-01T02:52:02;6.60;;;2.08;;
7263;SDS011;3673;52.480;13.348;2023-04-01T02:54:30;2.38;;;1.73;;
7263;SDS011;3673;52.480;13.348;2023-04-01T02:56:58;5.38;;;1.98;;
7263;SDS011;3673;52.480;13.348;2023-04-01T02:59:24;11.20;;;3.15;;
7263;SDS011;3673;52.480;13.348;2023-04-01T03:01:51;6.72;;;2.67;;
7263;SDS011;3673;52.480;13.348;2023-04-01T03:04:18;3.63;;;1.90;;
7263;SDS011;3673;52.480;13.348;2023-04-01T03:06:45;2.70;;;1.60;;
7263;SDS011;3673;52.480;13.348;2023-04-01T03:09:11;6.75;;;2.25;;
7263;SDS011;3673;52.480;13.348;2023-04-01T03:11:39;6.43;;;2.40;;
7263;SDS011;3673;52.480;13.348;2023-04-01T03:14:07;5.85;;;2.45;;
7263;SDS011;3673;52.480;13.348;2023-04-01T03:16:34;3.78;;;1.98;;
7263;SDS011;3673;52.480;13.348;2023-04-01T03:19:01;4.32;;;1.98;;
7263;SDS011;3673;52.480;13.348;2023-04-01T03:21:27;5.47;;;2.80;;
7263;SDS011;3673;52.480;13.348;2023-04-01T03:23:54;5.00;;;2.40;;
7263;SDS011;3673;52.480;13.348;2023-04-01T03:26:21;6.40;;;2.33;;
7263;SDS011;3673;52.480;13.348;2023-04-01T03:28:48;4.20;;;2.20;;
7263;SDS011;3673;52.480;13.348;2023-04-01T03:31:16;5.22;;;2.53;;
7263;SDS011;3673;52.480;13.348;2023-04-01T03:33:43;6.50;;;2.17;;
7263;SDS011;3673;52.480;13.348;2023-04-01T03:36:09;6.88;;;2.45;;
7263;SDS011;3673;52.480;13.348;2023-04-01T03:38:37;3.83;;;2.00;;
7263;SDS011;3673;52.480;13.348;2023-04-01T03:41:04;3.45;;;1.98;;
7263;SDS011;3673;52.480;13.348;2023-04-01T03:43:31;4.15;;;2.30;;
7263;SDS011;3673;52.480;13.348;2023-04-01T03:45:59;5.30;;;2.80;;
7263;SDS011;3673;52.480;13.348;2023-04-01T03:48:27;7.18;;;2.83;;
7263;SDS011;3673;52.480;13.348;2023-04-01T03:50:53;6.13;;;2.72;;
7263;SDS011;3673;52.480;13.348;2023-04-01T03:53:20;6.82;;;2.42;;
7263;SDS011;3673;52.480;13.348;2023-04-01T03:55:47;6.68;;;2.40;;
7263;SDS011;3673;52.480;13.348;2023-04-01T03:58:16;5.55;;;2.20;;
7263;SDS011;3673;52.480;13.348;2023-04-01T04:00:43;5.57;;;2.95;;
7263;SDS011;3673;52.480;13.348;2023-04-01T04:03:10;6.35;;;2.63;;
7263;SDS011;3673;52.480;13.348;2023-04-01T04:05:40;4.95;;;2.50;;
7263;SDS011;3673;52.480;13.348;2023-04-01T04:08:13;5.28;;;2.15;;
7263;SDS011;3673;52.480;13.348;2023-04-01T04:10:39;7.35;;;2.15;;
7263;SDS011;3673;52.480;13.348;2023-04-01T04:13:06;3.58;;;1.90;;
7263;SDS011;3673;52.480;13.348;2023-04-01T04:15:33;6.57;;;1.75;;
7263;SDS011;3673;52.480;13.348;2023-04-01T04:18:00;4.72;;;2.05;;
7263;SDS011;3673;52.480;13.348;2023-04-01T04:20:27;4.43;;;1.83;;
7263;SDS011;3673;52.480;13.348;2023-04-01T04:22:55;6.60;;;2.63;;
7263;SDS011;3673;52.480;13.348;2023-04-01T04:25:22;7.18;;;2.78;;
7263;SDS011;3673;52.480;13.348;2023-04-01T04:27:49;5.55;;;2.10;;
7263;SDS011;3673;52.480;13.348;2023-04-01T04:30:15;4.03;;;2.03;;
7263;SDS011;3673;52.480;13.348;2023-04-01T04:32:42;8.60;;;2.92;;
7263;SDS011;3673;52.480;13.348;2023-04-01T04:35:09;6.95;;;2.45;;
7263;SDS011;3673;52.480;13.348;2023-04-01T04:37:36;7.50;;;2.55;;
7263;SDS011;3673;52.480;13.348;2023-04-01T04:40:05;7.90;;;3.28;;
7263;SDS011;3673;52.480;13.348;2023-04-01T04:42:33;8.18;;;2.85;;
7263;SDS011;3673;52.480;13.348;2023-04-01T04:45:00;5.85;;;1.90;;
7263;SDS011;3673;52.480;13.348;2023-04-01T04:47:27;5.40;;;2.80;;
7263;SDS011;3673;52.480;13.348;2023-04-01T04:49:53;7.32;;;2.05;;
7263;SDS011;3673;52.480;13.348;2023-04-01T04:52:20;3.95;;;1.85;;
7263;SDS011;3673;52.480;13.348;2023-04-01T04:54:47;6.35;;;2.72;;
7263;SDS011;3673;52.480;13.348;2023-04-01T04:57:15;7.28;;;2.42;;
7263;SDS011;3673;52.480;13.348;2023-04-01T04:59:42;5.03;;;2.40;;
7263;SDS011;3673;52.480;13.348;2023-04-01T05:02:08;5.93;;;2.42;;
7263;SDS011;3673;52.480;13.348;2023-04-01T05:04:36;8.00;;;3.08;;
7263;SDS011;3673;52.480;13.348;2023-04-01T05:07:02;7.80;;;4.30;;
7263;SDS011;3673;52.480;13.348;2023-04-01T05:09:29;10.52;;;4.82;;
7263;SDS011;3673;52.480;13.348;2023-04-01T05:11:57;4.32;;;2.30;;
7263;SDS011;3673;52.480;13.348;2023-04-01T05:14:25;6.45;;;2.40;;
7263;SDS011;3673;52.480;13.348;2023-04-01T05:16:51;4.25;;;1.92;;
7263;SDS011;3673;52.480;13.348;2023-04-01T05:19:19;6.25;;;2.30;;
7263;SDS011;3673;52.480;13.348;2023-04-01T05:21:46;3.47;;;1.90;;
7263;SDS011;3673;52.480;13.348;2023-04-01T05:24:12;3.42;;;2.08;;
7263;SDS011;3673;52.480;13.348;2023-04-01T05:26:39;4.35;;;2.00;;
7263;SDS011;3673;52.480;13.348;2023-04-01T05:29:06;5.03;;;2.38;;
7263;SDS011;3673;52.480;13.348;2023-04-01T05:31:34;6.75;;;2.45;;
7263;SDS011;3673;52.480;13.348;2023-04-01T05:34:01;6.75;;;2.58;;
7263;SDS011;3673;52.480;13.348;2023-04-01T05:36:28;6.82;;;2.53;;
7263;SDS011;3673;52.480;13.348;2023-04-01T05:38:55;2.70;;;2.33;;
7263;SDS011;3673;52.480;13.348;2023-04-01T05:41:21;4.78;;;2.42;;
7263;SDS011;3673;52.480;13.348;2023-04-01T05:43:48;7.00;;;2.53;;
7263;SDS011;3673;52.480;13.348;2023-04-01T05:46:15;8.40;;;5.25;;
7263;SDS011;3673;52.480;13.348;2023-04-01T05:48:43;23.38;;;16.02;;
7263;SDS011;3673;52.480;13.348;2023-04-01T05:51:11;14.77;;;8.48;;
7263;SDS011;3673;52.480;13.348;2023-04-01T05:53:39;11.73;;;3.33;;
7263;SDS011;3673;52.480;13.348;2023-04-01T05:56:06;7.53;;;2.63;;
7263;SDS011;3673;52.480;13.348;2023-04-01T05:58:34;13.43;;;3.35;;
7263;SDS011;3673;52.480;13.348;2023-04-01T06:01:01;4.65;;;2.33;;
7263;SDS011;3673;52.480;13.348;2023-04-01T06:03:29;6.30;;;3.15;;
7263;SDS011;3673;52.480;13.348;2023-04-01T06:05:58;6.32;;;3.38;;
7263;SDS011;3673;52.480;13.348;2023-04-01T06:08:26;6.32;;;2.85;;
7263;SDS011;3673;52.480;13.348;2023-04-01T06:10:56;10.43;;;3.15;;
7263;SDS011;3673;52.480;13.348;2023-04-01T06:13:44;10.93;;;4.05;;
7263;SDS011;3673;52.480;13.348;2023-04-01T06:16:35;6.47;;;2.45;;
7263;SDS011;3673;52.480;13.348;2023-04-01T06:19:22;4.90;;;2.72;;
7263;SDS011;3673;52.480;13.348;2023-04-01T06:25:31;5.32;;;2.65;;
7263;SDS011;3673;52.480;13.348;2023-04-01T06:28:41;7.80;;;2.50;;
7263;SDS011;3673;52.480;13.348;2023-04-01T06:31:46;7.30;;;2.63;;
7263;SDS011;3673;52.480;13.348;2023-04-01T06:34:49;7.25;;;3.10;;
7263;SDS011;3673;52.480;13.348;2023-04-01T06:37:48;6.28;;;3.30;;
7263;SDS011;3673;52.480;13.348;2023-04-01T06:40:38;5.03;;;2.78;;
7263;SDS011;3673;52.480;13.348;2023-04-01T06:43:20;6.03;;;3.33;;
7263;SDS011;3673;52.480;13.348;2023-04-01T06:45:54;11.25;;;4.72;;
7263;SDS011;3673;52.480;13.348;2023-04-01T06:48:32;10.25;;;3.20;;
7263;SDS011;3673;52.480;13.348;2023-04-01T06:51:14;6.38;;;3.83;;
7263;SDS011;3673;52.480;13.348;2023-04-01T06:53:54;8.90;;;3.70;;
7263;SDS011;3673;52.480;13.348;2023-04-01T06:56:30;6.85;;;3.25;;
7263;SDS011;3673;52.480;13.348;2023-04-01T06:58:59;11.13;;;4.30;;
7263;SDS011;3673;52.480;13.348;2023-04-01T07:01:32;10.35;;;7.63;;
7263;SDS011;3673;52.480;13.348;2023-04-01T07:04:05;5.00;;;3.13;;
7263;SDS011;3673;52.480;13.348;2023-04-01T07:06:38;5.93;;;3.00;;
7263;SDS011;3673;52.480;13.348;2023-04-01T07:09:10;7.38;;;2.80;;
7263;SDS011;3673;52.480;13.348;2023-04-01T07:11:43;6.97;;;2.75;;
7263;SDS011;3673;52.480;13.348;2023-04-01T07:14:13;7.80;;;2.90;;
7263;SDS011;3673;52.480;13.348;2023-04-01T07:16:46;4.18;;;2.25;;
7263;SDS011;3673;52.480;13.348;2023-04-01T07:19:18;5.03;;;2.70;;
7263;SDS011;3673;52.480;13.348;2023-04-01T07:21:51;3.03;;;2.03;;
7263;SDS011;3673;52.480;13.348;2023-04-01T07:24:24;7.05;;;3.08;;
7263;SDS011;3673;52.480;13.348;2023-04-01T07:26:59;6.40;;;2.75;;
7263;SDS011;3673;52.480;13.348;2023-04-01T07:29:26;7.68;;;2.78;;
7263;SDS011;3673;52.480;13.348;2023-04-01T07:35:07;4.80;;;2.65;;
7263;SDS011;3673;52.480;13.348;2023-04-01T07:37:51;3.40;;;2.83;;
7263;SDS011;3673;52.480;13.348;2023-04-01T07:40:39;5.22;;;2.35;;
7263;SDS011;3673;52.480;13.348;2023-04-01T07:45:57;7.63;;;2.28;;
7263;SDS011;3673;52.480;13.348;2023-04-01T07:48:35;5.72;;;2.53;;
7263;SDS011;3673;52.480;13.348;2023-04-01T07:51:14;3.92;;;2.28;;
7263;SDS011;3673;52.480;13.348;2023-04-01T07:53:48;6.68;;;2.60;;
7263;SDS011;3673;52.480;13.348;2023-04-01T07:56:23;6.40;;;3.28;;
7263;SDS011;3673;52.480;13.348;2023-04-01T07:58:59;5.53;;;2.20;;
7263;SDS011;3673;52.480;13.348;2023-04-01T08:01:33;5.80;;;2.30;;
7263;SDS011;3673;52.480;13.348;2023-04-01T08:07:08;5.78;;;2.05;;
7263;SDS011;3673;52.480;13.348;2023-04-01T08:09:42;7.13;;;2.00;;
7263;SDS011;3673;52.480;13.348;2023-04-01T08:12:20;6.05;;;2.38;;
7263;SDS011;3673;52.480;13.348;2023-04-01T08:15:02;5.25;;;2.75;;
7263;SDS011;3673;52.480;13.348;2023-04-01T08:17:40;6.53;;;2.50;;
7263;SDS011;3673;52.480;13.348;2023-04-01T08:20:23;5.95;;;3.03;;
7263;SDS011;3673;52.480;13.348;2023-04-01T08:22:58;5.88;;;2.38;;
7263;SDS011;3673;52.480;13.348;2023-04-01T08:25:33;4.43;;;1.85;;
7263;SDS011;3673;52.480;13.348;2023-04-01T08:28:03;7.60;;;2.10;;
7263;SDS011;3673;52.480;13.348;2023-04-01T08:30:42;6.47;;;3.08;;
7263;SDS011;3673;52.480;13.348;2023-04-01T08:33:15;6.30;;;2.35;;
7263;SDS011;3673;52.480;13.348;2023-04-01T08:35:47;4.63;;;2.20;;
7263;SDS011;3673;52.480;13.348;2023-04-01T08:38:21;4.53;;;2.05;;
7263;SDS011;3673;52.480;13.348;2023-04-01T08:40:57;5.45;;;3.03;;
7263;SDS011;3673;52.480;13.348;2023-04-01T08:46:54;3.65;;;1.40;;
7263;SDS011;3673;52.480;13.348;2023-04-01T08:49:51;17.20;;;7.47;;
7263;SDS011;3673;52.480;13.348;2023-04-01T08:52:41;7.05;;;3.40;;
7263;SDS011;3673;52.480;13.348;2023-04-01T09:01:24;4.10;;;3.00;;
7263;SDS011;3673;52.480;13.348;2023-04-01T09:04:21;5.45;;;3.25;;
7263;SDS011;3673;52.480;13.348;2023-04-01T09:07:11;3.63;;;3.10;;
7263;SDS011;3673;52.480;13.348;2023-04-01T09:09:59;5.20;;;3.80;;
7263;SDS011;3673;52.480;13.348;2023-04-01T09:12:51;6.25;;;4.20;;
7263;SDS011;3673;52.480;13.348;2023-04-01T09:16:02;6.90;;;4.90;;
7263;SDS011;3673;52.480;13.348;2023-04-01T09:18:57;7.95;;;5.47;;
7263;SDS011;3673;52.480;13.348;2023-04-01T09:27:52;7.65;;;5.55;;
7263;SDS011;3673;52.480;13.348;2023-04-01T09:30:28;6.68;;;5.60;;
7263;SDS011;3673;52.480;13.348;2023-04-01T09:33:08;7.63;;;6.13;;
7263;SDS011;3673;52.480;13.348;2023-04-01T09:36:37;12.27;;;8.03;;
7263;SDS011;3673;52.480;13.348;2023-04-01T09:39:22;7.55;;;6.40;;
7263;SDS011;3673;52.480;13.348;2023-04-01T09:42:13;8.02;;;6.60;;
7263;SDS011;3673;52.480;13.348;2023-04-01T09:45:05;7.53;;;6.53;;
7263;SDS011;3673;52.480;13.348;2023-04-01T09:47:48;8.63;;;6.93;;
7263;SDS011;3673;52.480;13.348;2023-04-01T09:50:36;8.38;;;7.47;;
7263;SDS011;3673;52.480;13.348;2023-04-01T09:53:14;8.02;;;7.10;;
7263;SDS011;3673;52.480;13.348;2023-04-01T09:56:07;9.68;;;7.75;;
7263;SDS011;3673;52.480;13.348;2023-04-01T09:59:38;12.32;;;7.65;;
7263;SDS011;3673;52.480;13.348;2023-04-01T10:02:43;10.32;;;8.60;;
7263;SDS011;3673;52.480;13.348;2023-04-01T10:09:05;11.55;;;8.73;;
7263;SDS011;3673;52.480;13.348;2023-04-01T10:12:19;10.98;;;9.25;;
7263;SDS011;3673;52.480;13.348;2023-04-01T10:15:20;10.40;;;9.30;;
7263;SDS011;3673;52.480;13.348;2023-04-01T10:18:28;9.70;;;8.70;;
7263;SDS011;3673;52.480;13.348;2023-04-01T10:21:42;9.77;;;8.77;;
7263;SDS011;3673;52.480;13.348;2023-04-01T10:24:34;13.20;;;10.73;;
7263;SDS011;3673;52.480;13.348;2023-04-01T10:27:39;18.00;;;13.88;;
7263;SDS011;3673;52.480;13.348;2023-04-01T10:34:13;10.55;;;9.20;;
7263;SDS011;3673;52.480;13.348;2023-04-01T10:37:17;10.45;;;9.35;;
7263;SDS011;3673;52.480;13.348;2023-04-01T10:40:20;9.50;;;8.50;;
7263;SDS011;3673;52.480;13.348;2023-04-01T10:43:15;11.73;;;9.43;;
7263;SDS011;3673;52.480;13.348;2023-04-01T10:49:27;11.38;;;7.95;;
7263;SDS011;3673;52.480;13.348;2023-04-01T10:55:32;7.93;;;7.13;;
7263;SDS011;3673;52.480;13.348;2023-04-01T10:58:22;7.00;;;6.30;;
7263;SDS011;3673;52.480;13.348;2023-04-01T11:01:42;6.63;;;5.30;;
7263;SDS011;3673;52.480;13.348;2023-04-01T11:08:08;6.67;;;5.93;;
7263;SDS011;3673;52.480;13.348;2023-04-01T11:11:23;7.43;;;6.72;;
7263;SDS011;3673;52.480;13.348;2023-04-01T11:17:52;6.93;;;6.28;;
7263;SDS011;3673;52.480;13.348;2023-04-01T11:21:04;7.43;;;6.60;;
7263;SDS011;3673;52.480;13.348;2023-04-01T11:24:15;7.93;;;7.03;;
7263;SDS011;3673;52.480;13.348;2023-04-01T11:27:08;7.82;;;6.38;;
7263;SDS011;3673;52.480;13.348;2023-04-01T11:29:53;9.02;;;6.90;;
7263;SDS011;3673;52.480;13.348;2023-04-01T11:33:04;9.02;;;7.53;;
7263;SDS011;3673;52.480;13.348;2023-04-01T11:35:47;7.57;;;6.72;;
7263;SDS011;3673;52.480;13.348;2023-04-01T11:38:44;7.57;;;6.47;;
7263;SDS011;3673;52.480;13.348;2023-04-01T11:41:36;9.30;;;7.20;;
7263;SDS011;3673;52.480;13.348;2023-04-01T11:44:16;9.90;;;8.05;;
7263;SDS011;3673;52.480;13.348;2023-04-01T11:46:51;10.23;;;8.38;;
7263;SDS011;3673;52.480;13.348;2023-04-01T11:49:49;11.57;;;8.70;;
7263;SDS011;3673;52.480;13.348;2023-04-01T11:52:47;10.70;;;6.72;;
7263;SDS011;3673;52.480;13.348;2023-04-01T11:55:39;16.38;;;9.68;;
7263;SDS011;3673;52.480;13.348;2023-04-01T11:58:24;13.45;;;7.95;;
7263;SDS011;3673;52.480;13.348;2023-04-01T12:01:27;12.52;;;8.18;;
7263;SDS011;3673;52.480;13.348;2023-04-01T12:04:19;6.82;;;4.68;;
7263;SDS011;3673;52.480;13.348;2023-04-01T12:07:05;9.20;;;6.30;;
7263;SDS011;3673;52.480;13.348;2023-04-01T12:09:46;7.53;;;4.32;;
7263;SDS011;3673;52.480;13.348;2023-04-01T12:12:27;5.38;;;4.75;;
7263;SDS011;3673;52.480;13.348;2023-04-01T12:15:05;6.93;;;4.43;;
7263;SDS011;3673;52.480;13.348;2023-04-01T12:17:49;6.80;;;5.38;;
7263;SDS011;3673;52.480;13.348;2023-04-01T12:20:26;5.32;;;4.10;;
7263;SDS011;3673;52.480;13.348;2023-04-01T12:23:06;7.53;;;6.22;;
7263;SDS011;3673;52.480;13.348;2023-04-01T12:26:19;9.15;;;6.35;;
7263;SDS011;3673;52.480;13.348;2023-04-01T12:29:06;6.57;;;5.88;;
7263;SDS011;3673;52.480;13.348;2023-04-01T12:31:48;6.53;;;5.72;;
7263;SDS011;3673;52.480;13.348;2023-04-01T12:34:30;7.32;;;5.75;;
7263;SDS011;3673;52.480;13.348;2023-04-01T12:37:26;9.32;;;5.90;;
7263;SDS011;3673;52.480;13.348;2023-04-01T12:43:17;15.02;;;9.57;;
7263;SDS011;3673;52.480;13.348;2023-04-01T12:46:09;13.10;;;9.75;;
7263;SDS011;3673;52.480;13.348;2023-04-01T12:48:59;10.02;;;6.65;;
7263;SDS011;3673;52.480;13.348;2023-04-01T12:52:00;10.82;;;7.05;;
7263;SDS011;3673;52.480;13.348;2023-04-01T12:54:42;7.18;;;5.55;;
7263;SDS011;3673;52.480;13.348;2023-04-01T13:01:00;7.97;;;6.93;;
7263;SDS011;3673;52.480;13.348;2023-04-01T13:09:53;8.25;;;6.18;;
7263;SDS011;3673;52.480;13.348;2023-04-01T13:12:36;9.32;;;6.68;;
7263;SDS011;3673;52.480;13.348;2023-04-01T13:15:25;9.88;;;6.55;;
7263;SDS011;3673;52.480;13.348;2023-04-01T13:18:02;8.15;;;7.00;;
7263;SDS011;3673;52.480;13.348;2023-04-01T13:20:43;14.60;;;9.93;;
7263;SDS011;3673;52.480;13.348;2023-04-01T13:23:23;15.27;;;12.20;;
7263;SDS011;3673;52.480;13.348;2023-04-01T13:26:03;12.68;;;11.40;;
7263;SDS011;3673;52.480;13.348;2023-04-01T13:28:40;13.85;;;11.80;;
7263;SDS011;3673;52.480;13.348;2023-04-01T13:31:19;19.50;;;13.20;;
7263;SDS011;3673;52.480;13.348;2023-04-01T13:34:00;12.00;;;10.20;;
7263;SDS011;3673;52.480;13.348;2023-04-01T13:36:46;11.65;;;10.32;;
7263;SDS011;3673;52.480;13.348;2023-04-01T13:39:35;11.10;;;10.00;;
7263;SDS011;3673;52.480;13.348;2023-04-01T13:42:13;10.60;;;9.60;;
7263;SDS011;3673;52.480;13.348;2023-04-01T13:44:51;11.60;;;10.05;;
7263;SDS011;3673;52.480;13.348;2023-04-01T13:47:26;11.25;;;9.65;;
7263;SDS011;3673;52.480;13.348;2023-04-01T13:50:46;9.93;;;7.70;;
7263;SDS011;3673;52.480;13.348;2023-04-01T13:57:17;12.18;;;10.48;;
7263;SDS011;3673;52.480;13.348;2023-04-01T14:00:19;14.43;;;12.10;;
7263;SDS011;3673;52.480;13.348;2023-04-01T14:03:19;10.88;;;9.40;;
7263;SDS011;3673;52.480;13.348;2023-04-01T14:06:15;14.65;;;10.48;;
7263;SDS011;3673;52.480;13.348;2023-04-01T14:09:18;10.52;;;9.05;;
7263;SDS011;3673;52.480;13.348;2023-04-01T14:12:04;9.52;;;8.05;;
7263;SDS011;3673;52.480;13.348;2023-04-01T14:14:43;12.18;;;10.65;;
7263;SDS011;3673;52.480;13.348;2023-04-01T14:17:32;9.68;;;8.75;;
7263;SDS011;3673;52.480;13.348;2023-04-01T14:20:20;10.20;;;8.70;;
7263;SDS011;3673;52.480;13.348;2023-04-01T14:29:11;9.80;;;8.63;;
7263;SDS011;3673;52.480;13.348;2023-04-01T14:31:52;19.05;;;11.20;;
7263;SDS011;3673;52.480;13.348;2023-04-01T14:34:36;10.10;;;7.80;;
7263;SDS011;3673;52.480;13.348;2023-04-01T14:37:34;12.25;;;8.57;;
7263;SDS011;3673;52.480;13.348;2023-04-01T14:40:40;7.72;;;6.93;;
7263;SDS011;3673;52.480;13.348;2023-04-01T14:43:28;8.35;;;7.55;;
7263;SDS011;3673;52.480;13.348;2023-04-01T14:49:47;12.63;;;8.95;;
7263;SDS011;3673;52.480;13.348;2023-04-01T14:52:22;13.80;;;9.40;;
7263;SDS011;3673;52.480;13.348;2023-04-01T14:54:55;7.80;;;7.00;;
7263;SDS011;3673;52.480;13.348;2023-04-01T14:57:24;9.63;;;7.65;;
7263;SDS011;3673;52.480;13.348;2023-04-01T14:59:55;10.27;;;8.30;;
7263;SDS011;3673;52.480;13.348;2023-04-01T15:02:31;11.13;;;8.75;;
7263;SDS011;3673;52.480;13.348;2023-04-01T15:05:15;9.90;;;6.82;;
7263;SDS011;3673;52.480;13.348;2023-04-01T15:07:55;16.20;;;8.68;;
7263;SDS011;3673;52.480;13.348;2023-04-01T15:10:42;14.40;;;9.43;;
7263;SDS011;3673;52.480;13.348;2023-04-01T15:13:46;10.50;;;7.65;;
7263;SDS011;3673;52.480;13.348;2023-04-01T15:16:49;13.55;;;7.65;;
7263;SDS011;3673;52.480;13.348;2023-04-01T15:19:29;12.00;;;7.88;;
7263;SDS011;3673;52.480;13.348;2023-04-01T15:22:13;8.88;;;7.82;;
7263;SDS011;3673;52.480;13.348;2023-04-01T15:28:03;9.75;;;7.22;;
7263;SDS011;3673;52.480;13.348;2023-04-01T15:30:37;11.13;;;7.63;;
7263;SDS011;3673;52.480;13.348;2023-04-01T15:33:17;9.57;;;7.50;;
7263;SDS011;3673;52.480;13.348;2023-04-01T15:36:00;7.90;;;7.07;;
7263;SDS011;3673;52.480;13.348;2023-04-01T15:38:40;9.32;;;7.32;;
7263;SDS011;3673;52.480;13.348;2023-04-01T15:41:15;11.35;;;7.53;;
7263;SDS011;3673;52.480;13.348;2023-04-01T15:43:50;9.95;;;7.18;;
7263;SDS011;3673;52.480;13.348;2023-04-01T15:46:21;12.10;;;6.07;;
7263;SDS011;3673;52.480;13.348;2023-04-01T15:49:03;10.57;;;6.20;;
7263;SDS011;3673;52.480;13.348;2023-04-01T15:54:20;10.00;;;6.13;;
7263;SDS011;3673;52.480;13.348;2023-04-01T15:56:59;8.48;;;5.18;;
7263;SDS011;3673;52.480;13.348;2023-04-01T15:59:58;8.23;;;6.10;;
7263;SDS011;3673;52.480;13.348;2023-04-01T16:02:48;17.23;;;5.70;;
7263;SDS011;3673;52.480;13.348;2023-04-01T16:05:26;6.80;;;5.80;;
7263;SDS011;3673;52.480;13.348;2023-04-01T16:08:09;7.97;;;5.10;;
7263;SDS011;3673;52.480;13.348;2023-04-01T16:11:15;6.15;;;5.10;;
7263;SDS011;3673;52.480;13.348;2023-04-01T16:13:54;6.03;;;4.93;;
7263;SDS011;3673;52.480;13.348;2023-04-01T16:16:38;8.52;;;6.38;;
7263;SDS011;3673;52.480;13.348;2023-04-01T16:19:23;6.95;;;6.03;;
7263;SDS011;3673;52.480;13.348;2023-04-01T16:22:06;6.68;;;5.47;;
7263;SDS011;3673;52.480;13.348;2023-04-01T16:24:39;18.80;;;7.50;;
7263;SDS011;3673;52.480;13.348;2023-04-01T16:27:13;13.18;;;8.65;;
7263;SDS011;3673;52.480;13.348;2023-04-01T16:29:45;11.80;;;7.03;;
7263;SDS011;3673;52.480;13.348;2023-04-01T16:32:31;6.70;;;5.32;;
7263;SDS011;3673;52.480;13.348;2023-04-01T16:35:20;7.38;;;5.85;;
7263;SDS011;3673;52.480;13.348;2023-04-01T16:37:56;9.82;;;6.00;;
7263;SDS011;3673;52.480;13.348;2023-04-01T16:40:37;8.23;;;5.70;;
7263;SDS011;3673;52.480;13.348;2023-04-01T16:43:11;5.40;;;4.90;;
7263;SDS011;3673;52.480;13.348;2023-04-01T16:45:51;7.68;;;5.47;;
7263;SDS011;3673;52.480;13.348;2023-04-01T16:48:45;8.75;;;5.97;;
7263;SDS011;3673;52.480;13.348;2023-04-01T16:51:25;7.03;;;6.15;;
7263;SDS011;3673;52.480;13.348;2023-04-01T16:54:03;6.63;;;5.45;;
7263;SDS011;3673;52.480;13.348;2023-04-01T16:56:39;13.07;;;5.95;;
7263;SDS011;3673;52.480;13.348;2023-04-01T16:59:14;6.28;;;5.68;;
7263;SDS011;3673;52.480;13.348;2023-04-01T17:01:48;6.53;;;5.45;;
7263;SDS011;3673;52.480;13.348;2023-04-01T17:04:23;7.97;;;5.88;;
7263;SDS011;3673;52.480;13.348;2023-04-01T17:07:01;9.48;;;5.88;;
7263;SDS011;3673;52.480;13.348;2023-04-01T17:09:48;16.33;;;8.25;;
7263;SDS011;3673;52.480;13.348;2023-04-01T17:12:28;8.32;;;5.57;;
7263;SDS011;3673;52.480;13.348;2023-04-01T17:15:05;6.78;;;5.07;;
7263;SDS011;3673;52.480;13.348;2023-04-01T17:17:45;5.38;;;4.88;;
7263;SDS011;3673;52.480;13.348;2023-04-01T17:20:24;7.38;;;5.25;;
7263;SDS011;3673;52.480;13.348;2023-04-01T17:23:00;8.18;;;5.70;;
7263;SDS011;3673;52.480;13.348;2023-04-01T17:25:45;7.55;;;6.28;;
7263;SDS011;3673;52.480;13.348;2023-04-01T17:28:26;13.70;;;9.55;;
7263;SDS011;3673;52.480;13.348;2023-04-01T17:31:05;9.50;;;6.13;;